sensor_id;sensor_type;location;lat;lon;timestamp;temperature;humidity
59505;DHT22;45321;53.200;5.814;2023-07-31T00:00:33;19.00;83.00
59505;DHT22;45321;53.200;5.814;2023-07-31T00:02:59;19.00;83.00
59505;DHT22;45321;53.200;5.814;2023-07-31T00:05:25;19.00;82.90
59505;DHT22;45321;53.200;5.814;2023-07-31T00:07:51;19.00;83.20
59505;DHT22;45321;53.200;5.814;2023-07-31T00:10:16;19.00;83.60
59505;DHT22;45321;53.200;5.814;2023-07-31T00:12:44;19.00;83.00
59505;DHT22;45321;53.200;5.814;2023-07-31T00:15:10;19.00;83.30
59505;DHT22;45321;53.200;5.814;2023-07-31T00:17:37;19.00;83.10
59505;DHT22;45321;53.200;5.814;2023-07-31T00:20:03;19.00;82.90
59505;DHT22;45321;53.200;5.814;2023-07-31T00:22:28;18.90;83.60
59505;DHT22;45321;53.200;5.814;2023-07-31T00:24:56;18.90;83.10
59505;DHT22;45321;53.200;5.814;2023-07-31T00:27:22;18.90;83.70
59505;DHT22;45321;53.200;5.814;2023-07-31T00:29:47;18.90;83.90
59505;DHT22;45321;53.200;5.814;2023-07-31T00:32:13;18.90;83.30
59505;DHT22;45321;53.200;5.814;2023-07-31T00:34:38;18.90;84.10
59505;DHT22;45321;53.200;5.814;2023-07-31T00:37:04;18.90;83.60
59505;DHT22;45321;53.200;5.814;2023-07-31T00:39:30;18.90;83.60
59505;DHT22;45321;53.200;5.814;2023-07-31T00:41:56;18.80;83.40
59505;DHT22;45321;53.200;5.814;2023-07-31T00:44:22;18.80;83.90
59505;DHT22;45321;53.200;5.814;2023-07-31T00:46:48;18.80;83.80
59505;DHT22;45321;53.200;5.814;2023-07-31T00:49:14;18.80;84.10
59505;DHT22;45321;53.200;5.814;2023-07-31T00:51:40;18.80;83.80
59505;DHT22;45321;53.200;5.814;2023-07-31T00:54:06;18.80;84.20
59505;DHT22;45321;53.200;5.814;2023-07-31T00:56:32;18.70;83.90
59505;DHT22;45321;53.200;5.814;2023-07-31T00:58:58;18.70;83.80
59505;DHT22;45321;53.200;5.814;2023-07-31T01:01:24;18.70;84.50
59505;DHT22;45321;53.200;5.814;2023-07-31T01:03:52;18.70;83.90
59505;DHT22;45321;53.200;5.814;2023-07-31T01:06:30;18.70;83.80
59505;DHT22;45321;53.200;5.814;2023-07-31T01:09:10;18.70;84.40
59505;DHT22;45321;53.200;5.814;2023-07-31T01:11:45;18.70;83.90
59505;DHT22;45321;53.200;5.814;2023-07-31T01:14:13;18.70;84.60
59505;DHT22;45321;53.200;5.814;2023-07-31T01:16:38;18.70;84.30
59505;DHT22;45321;53.200;5.814;2023-07-31T01:19:05;18.70;84.60
59505;DHT22;45321;53.200;5.814;2023-07-31T01:24:28;18.60;84.20
59505;DHT22;45321;53.200;5.814;2023-07-31T01:27:10;18.60;84.20
59505;DHT22;45321;53.200;5.814;2023-07-31T01:32:05;18.60;84.60
59505;DHT22;45321;53.200;5.814;2023-07-31T01:34:32;18.60;85.20
59505;DHT22;45321;53.200;5.814;2023-07-31T01:36:58;18.50;85.50
59505;DHT22;45321;53.200;5.814;2023-07-31T01:39:24;18.50;85.10
59505;DHT22;45321;53.200;5.814;2023-07-31T01:41:50;18.50;84.80
59505;DHT22;45321;53.200;5.814;2023-07-31T01:44:16;18.50;84.90
59505;DHT22;45321;53.200;5.814;2023-07-31T01:46:42;18.50;85.30
59505;DHT22;45321;53.200;5.814;2023-07-31T01:49:07;18.50;85.60
59505;DHT22;45321;53.200;5.814;2023-07-31T01:51:33;18.50;85.00
59505;DHT22;45321;53.200;5.814;2023-07-31T01:54:02;18.50;85.50
59505;DHT22;45321;53.200;5.814;2023-07-31T01:56:28;18.50;86.10
59505;DHT22;45321;53.200;5.814;2023-07-31T01:58:54;18.50;85.60
59505;DHT22;45321;53.200;5.814;2023-07-31T02:01:20;18.40;85.70
59505;DHT22;45321;53.200;5.814;2023-07-31T02:03:46;18.40;85.10
59505;DHT22;45321;53.200;5.814;2023-07-31T02:06:11;18.40;84.70
59505;DHT22;45321;53.200;5.814;2023-07-31T02:08:37;18.40;84.70
59505;DHT22;45321;53.200;5.814;2023-07-31T02:11:03;18.40;84.70
59505;DHT22;45321;53.200;5.814;2023-07-31T02:13:29;18.40;84.90
59505;DHT22;45321;53.200;5.814;2023-07-31T02:15:54;18.30;85.90
59505;DHT22;45321;53.200;5.814;2023-07-31T02:18:20;18.30;85.70
59505;DHT22;45321;53.200;5.814;2023-07-31T02:20:51;18.30;85.00
59505;DHT22;45321;53.200;5.814;2023-07-31T02:23:18;18.30;84.90
59505;DHT22;45321;53.200;5.814;2023-07-31T02:25:44;18.30;85.70
59505;DHT22;45321;53.200;5.814;2023-07-31T02:28:10;18.30;85.70
59505;DHT22;45321;53.200;5.814;2023-07-31T02:30:36;18.30;85.70
59505;DHT22;45321;53.200;5.814;2023-07-31T02:33:02;18.20;86.50
59505;DHT22;45321;53.200;5.814;2023-07-31T02:35:28;18.20;85.40
59505;DHT22;45321;53.200;5.814;2023-07-31T02:37:53;18.20;85.50
59505;DHT22;45321;53.200;5.814;2023-07-31T02:40:19;18.20;86.10
59505;DHT22;45321;53.200;5.814;2023-07-31T02:42:45;18.20;86.30
59505;DHT22;45321;53.200;5.814;2023-07-31T02:45:11;18.20;86.10
59505;DHT22;45321;53.200;5.814;2023-07-31T02:47:36;18.20;85.80
59505;DHT22;45321;53.200;5.814;2023-07-31T02:50:03;18.20;85.50
59505;DHT22;45321;53.200;5.814;2023-07-31T02:52:29;18.20;86.00
59505;DHT22;45321;53.200;5.814;2023-07-31T02:54:55;18.20;85.70
59505;DHT22;45321;53.200;5.814;2023-07-31T02:57:20;18.20;85.40
59505;DHT22;45321;53.200;5.814;2023-07-31T02:59:46;18.10;85.00
59505;DHT22;45321;53.200;5.814;2023-07-31T03:02:12;18.00;85.80
59505;DHT22;45321;53.200;5.814;2023-07-31T03:04:38;18.00;86.20
59505;DHT22;45321;53.200;5.814;2023-07-31T03:07:04;18.00;86.20
59505;DHT22;45321;53.200;5.814;2023-07-31T03:09:30;17.90;85.80
59505;DHT22;45321;53.200;5.814;2023-07-31T03:11:56;17.90;86.00
59505;DHT22;45321;53.200;5.814;2023-07-31T03:14:22;17.80;86.90
59505;DHT22;45321;53.200;5.814;2023-07-31T03:16:48;17.80;86.60
59505;DHT22;45321;53.200;5.814;2023-07-31T03:19:14;17.80;86.90
59505;DHT22;45321;53.200;5.814;2023-07-31T03:21:40;17.80;86.40
59505;DHT22;45321;53.200;5.814;2023-07-31T03:24:06;17.80;87.20
59505;DHT22;45321;53.200;5.814;2023-07-31T03:26:32;17.80;87.10
59505;DHT22;45321;53.200;5.814;2023-07-31T03:28:58;17.80;86.90
59505;DHT22;45321;53.200;5.814;2023-07-31T03:31:24;17.70;87.20
59505;DHT22;45321;53.200;5.814;2023-07-31T03:33:49;17.70;86.80
59505;DHT22;45321;53.200;5.814;2023-07-31T03:36:15;17.70;87.50
59505;DHT22;45321;53.200;5.814;2023-07-31T03:38:41;17.60;86.90
59505;DHT22;45321;53.200;5.814;2023-07-31T03:41:06;17.70;87.10
59505;DHT22;45321;53.200;5.814;2023-07-31T03:43:32;17.70;87.00
59505;DHT22;45321;53.200;5.814;2023-07-31T03:46:01;17.70;87.20
59505;DHT22;45321;53.200;5.814;2023-07-31T03:48:28;17.70;87.60
59505;DHT22;45321;53.200;5.814;2023-07-31T03:50:54;17.70;87.40
59505;DHT22;45321;53.200;5.814;2023-07-31T03:53:20;17.70;87.30
59505;DHT22;45321;53.200;5.814;2023-07-31T03:55:46;17.70;87.90
59505;DHT22;45321;53.200;5.814;2023-07-31T03:58:11;17.70;88.40
59505;DHT22;45321;53.200;5.814;2023-07-31T04:00:37;17.60;88.10
59505;DHT22;45321;53.200;5.814;2023-07-31T04:03:03;17.60;87.60
59505;DHT22;45321;53.200;5.814;2023-07-31T04:05:32;17.70;87.50
59505;DHT22;45321;53.200;5.814;2023-07-31T04:07:58;17.70;87.30
59505;DHT22;45321;53.200;5.814;2023-07-31T04:10:24;17.70;87.70
59505;DHT22;45321;53.200;5.814;2023-07-31T04:12:50;17.70;88.10
59505;DHT22;45321;53.200;5.814;2023-07-31T04:15:15;17.60;88.20
59505;DHT22;45321;53.200;5.814;2023-07-31T04:17:41;17.70;88.20
59505;DHT22;45321;53.200;5.814;2023-07-31T04:20:07;17.70;87.60
59505;DHT22;45321;53.200;5.814;2023-07-31T04:22:34;17.70;87.70
59505;DHT22;45321;53.200;5.814;2023-07-31T04:24:59;17.70;87.80
59505;DHT22;45321;53.200;5.814;2023-07-31T04:27:26;17.70;88.30
59505;DHT22;45321;53.200;5.814;2023-07-31T04:29:51;17.70;88.00
59505;DHT22;45321;53.200;5.814;2023-07-31T04:32:17;17.70;88.30
59505;DHT22;45321;53.200;5.814;2023-07-31T04:34:43;17.70;88.30
59505;DHT22;45321;53.200;5.814;2023-07-31T04:37:09;17.70;88.10
59505;DHT22;45321;53.200;5.814;2023-07-31T04:39:35;17.70;88.20
59505;DHT22;45321;53.200;5.814;2023-07-31T04:42:00;17.70;88.60
59505;DHT22;45321;53.200;5.814;2023-07-31T04:44:26;17.70;88.20
59505;DHT22;45321;53.200;5.814;2023-07-31T04:46:52;17.70;88.20
59505;DHT22;45321;53.200;5.814;2023-07-31T04:49:17;17.70;88.10
59505;DHT22;45321;53.200;5.814;2023-07-31T04:51:44;17.80;88.10
59505;DHT22;45321;53.200;5.814;2023-07-31T04:54:10;17.80;88.00
59505;DHT22;45321;53.200;5.814;2023-07-31T04:56:38;17.70;88.20
59505;DHT22;45321;53.200;5.814;2023-07-31T04:59:03;17.70;88.90
59505;DHT22;45321;53.200;5.814;2023-07-31T05:01:29;17.70;89.00
59505;DHT22;45321;53.200;5.814;2023-07-31T05:03:55;17.70;89.20
59505;DHT22;45321;53.200;5.814;2023-07-31T05:06:21;17.80;88.60
59505;DHT22;45321;53.200;5.814;2023-07-31T05:08:46;17.80;88.30
59505;DHT22;45321;53.200;5.814;2023-07-31T05:11:12;17.80;88.60
59505;DHT22;45321;53.200;5.814;2023-07-31T05:13:38;17.80;88.80
59505;DHT22;45321;53.200;5.814;2023-07-31T05:16:03;17.80;88.70
59505;DHT22;45321;53.200;5.814;2023-07-31T05:18:29;17.80;88.80
59505;DHT22;45321;53.200;5.814;2023-07-31T05:20:55;17.80;88.80
59505;DHT22;45321;53.200;5.814;2023-07-31T05:23:21;17.80;89.00
59505;DHT22;45321;53.200;5.814;2023-07-31T05:25:46;17.80;88.80
59505;DHT22;45321;53.200;5.814;2023-07-31T05:28:13;17.80;88.90
59505;DHT22;45321;53.200;5.814;2023-07-31T05:30:38;17.80;89.40
59505;DHT22;45321;53.200;5.814;2023-07-31T05:33:04;17.80;89.70
59505;DHT22;45321;53.200;5.814;2023-07-31T05:35:30;17.80;90.00
59505;DHT22;45321;53.200;5.814;2023-07-31T05:37:55;17.80;90.20
59505;DHT22;45321;53.200;5.814;2023-07-31T05:40:21;17.80;89.40
59505;DHT22;45321;53.200;5.814;2023-07-31T05:42:47;17.80;89.30
59505;DHT22;45321;53.200;5.814;2023-07-31T05:45:13;17.80;89.90
59505;DHT22;45321;53.200;5.814;2023-07-31T05:47:39;17.80;89.50
59505;DHT22;45321;53.200;5.814;2023-07-31T05:50:05;17.70;89.10
59505;DHT22;45321;53.200;5.814;2023-07-31T05:52:31;17.70;89.40
59505;DHT22;45321;53.200;5.814;2023-07-31T05:54:57;17.70;89.40
59505;DHT22;45321;53.200;5.814;2023-07-31T05:57:22;17.70;89.40
59505;DHT22;45321;53.200;5.814;2023-07-31T05:59:48;17.70;89.30
59505;DHT22;45321;53.200;5.814;2023-07-31T06:02:14;17.70;89.40
59505;DHT22;45321;53.200;5.814;2023-07-31T06:04:40;17.70;89.40
59505;DHT22;45321;53.200;5.814;2023-07-31T06:07:06;17.70;89.40
59505;DHT22;45321;53.200;5.814;2023-07-31T06:09:32;17.70;89.20
59505;DHT22;45321;53.200;5.814;2023-07-31T06:11:58;17.70;89.50
59505;DHT22;45321;53.200;5.814;2023-07-31T06:14:24;17.70;89.80
59505;DHT22;45321;53.200;5.814;2023-07-31T06:16:49;17.70;90.00
59505;DHT22;45321;53.200;5.814;2023-07-31T06:19:15;17.80;90.30
59505;DHT22;45321;53.200;5.814;2023-07-31T06:21:41;17.70;90.20
59505;DHT22;45321;53.200;5.814;2023-07-31T06:24:08;17.80;89.90
59505;DHT22;45321;53.200;5.814;2023-07-31T06:26:37;17.80;89.90
59505;DHT22;45321;53.200;5.814;2023-07-31T06:29:03;17.80;89.70
59505;DHT22;45321;53.200;5.814;2023-07-31T06:31:29;17.80;89.60
59505;DHT22;45321;53.200;5.814;2023-07-31T06:33:54;17.80;89.70
59505;DHT22;45321;53.200;5.814;2023-07-31T06:36:20;17.80;90.00
59505;DHT22;45321;53.200;5.814;2023-07-31T06:38:46;17.80;89.80
59505;DHT22;45321;53.200;5.814;2023-07-31T06:41:11;17.80;89.80
59505;DHT22;45321;53.200;5.814;2023-07-31T06:43:37;17.80;89.80
59505;DHT22;45321;53.200;5.814;2023-07-31T06:46:07;17.80;90.30
59505;DHT22;45321;53.200;5.814;2023-07-31T06:48:33;17.90;90.10
59505;DHT22;45321;53.200;5.814;2023-07-31T06:51:00;17.80;89.80
59505;DHT22;45321;53.200;5.814;2023-07-31T06:53:26;17.80;90.00
59505;DHT22;45321;53.200;5.814;2023-07-31T06:55:52;17.90;89.80
59505;DHT22;45321;53.200;5.814;2023-07-31T06:58:17;17.90;89.90
59505;DHT22;45321;53.200;5.814;2023-07-31T07:00:43;17.90;89.70
59505;DHT22;45321;53.200;5.814;2023-07-31T07:03:09;17.90;90.30
59505;DHT22;45321;53.200;5.814;2023-07-31T07:05:35;17.90;90.40
59505;DHT22;45321;53.200;5.814;2023-07-31T07:08:01;17.90;90.20
59505;DHT22;45321;53.200;5.814;2023-07-31T07:10:26;17.90;90.00
59505;DHT22;45321;53.200;5.814;2023-07-31T07:12:52;18.00;90.10
59505;DHT22;45321;53.200;5.814;2023-07-31T07:15:18;18.00;89.90
59505;DHT22;45321;53.200;5.814;2023-07-31T07:17:44;18.00;89.90
59505;DHT22;45321;53.200;5.814;2023-07-31T07:20:10;18.00;90.10
59505;DHT22;45321;53.200;5.814;2023-07-31T07:22:35;18.00;90.20
59505;DHT22;45321;53.200;5.814;2023-07-31T07:25:02;18.00;90.10
59505;DHT22;45321;53.200;5.814;2023-07-31T07:27:28;18.00;90.20
59505;DHT22;45321;53.200;5.814;2023-07-31T07:29:54;18.10;90.30
59505;DHT22;45321;53.200;5.814;2023-07-31T07:32:20;18.10;90.10
59505;DHT22;45321;53.200;5.814;2023-07-31T07:34:47;18.10;90.70
59505;DHT22;45321;53.200;5.814;2023-07-31T07:37:13;18.20;90.50
59505;DHT22;45321;53.200;5.814;2023-07-31T07:39:39;18.20;90.70
59505;DHT22;45321;53.200;5.814;2023-07-31T07:42:04;18.20;90.60
59505;DHT22;45321;53.200;5.814;2023-07-31T07:44:30;18.20;90.40
59505;DHT22;45321;53.200;5.814;2023-07-31T07:46:56;18.30;90.80
59505;DHT22;45321;53.200;5.814;2023-07-31T07:49:22;18.30;90.90
59505;DHT22;45321;53.200;5.814;2023-07-31T07:51:50;18.20;90.80
59505;DHT22;45321;53.200;5.814;2023-07-31T07:54:16;18.30;90.40
59505;DHT22;45321;53.200;5.814;2023-07-31T07:56:46;18.30;90.60
59505;DHT22;45321;53.200;5.814;2023-07-31T07:59:12;18.20;91.00
59505;DHT22;45321;53.200;5.814;2023-07-31T08:01:38;18.30;91.30
59505;DHT22;45321;53.200;5.814;2023-07-31T08:04:04;18.30;91.40
59505;DHT22;45321;53.200;5.814;2023-07-31T08:06:29;18.30;91.00
59505;DHT22;45321;53.200;5.814;2023-07-31T08:08:55;18.40;90.90
59505;DHT22;45321;53.200;5.814;2023-07-31T08:11:21;18.40;91.10
59505;DHT22;45321;53.200;5.814;2023-07-31T08:13:49;18.40;90.90
59505;DHT22;45321;53.200;5.814;2023-07-31T08:16:15;18.40;91.00
59505;DHT22;45321;53.200;5.814;2023-07-31T08:18:41;18.40;90.90
59505;DHT22;45321;53.200;5.814;2023-07-31T08:21:08;18.50;91.00
59505;DHT22;45321;53.200;5.814;2023-07-31T08:23:34;18.60;90.90
59505;DHT22;45321;53.200;5.814;2023-07-31T08:26:00;18.60;91.00
59505;DHT22;45321;53.200;5.814;2023-07-31T08:28:26;18.60;91.00
59505;DHT22;45321;53.200;5.814;2023-07-31T08:30:51;18.70;91.00
59505;DHT22;45321;53.200;5.814;2023-07-31T08:33:17;18.70;90.90
59505;DHT22;45321;53.200;5.814;2023-07-31T08:35:43;18.70;90.80
59505;DHT22;45321;53.200;5.814;2023-07-31T08:38:09;18.70;90.90
59505;DHT22;45321;53.200;5.814;2023-07-31T08:40:38;18.70;90.60
59505;DHT22;45321;53.200;5.814;2023-07-31T08:43:05;18.70;90.60
59505;DHT22;45321;53.200;5.814;2023-07-31T08:45:31;18.70;90.60
59505;DHT22;45321;53.200;5.814;2023-07-31T08:47:58;18.80;90.50
59505;DHT22;45321;53.200;5.814;2023-07-31T08:50:24;18.80;90.50
59505;DHT22;45321;53.200;5.814;2023-07-31T08:52:51;18.70;90.50
59505;DHT22;45321;53.200;5.814;2023-07-31T08:55:18;18.70;90.30
59505;DHT22;45321;53.200;5.814;2023-07-31T08:57:50;18.70;90.30
59505;DHT22;45321;53.200;5.814;2023-07-31T09:00:16;18.70;90.20
59505;DHT22;45321;53.200;5.814;2023-07-31T09:02:56;18.80;90.60
59505;DHT22;45321;53.200;5.814;2023-07-31T09:05:23;18.80;90.40
59505;DHT22;45321;53.200;5.814;2023-07-31T09:07:50;18.80;90.50
59505;DHT22;45321;53.200;5.814;2023-07-31T09:10:16;18.80;90.50
59505;DHT22;45321;53.200;5.814;2023-07-31T09:12:42;18.80;90.80
59505;DHT22;45321;53.200;5.814;2023-07-31T09:15:09;18.80;91.00
59505;DHT22;45321;53.200;5.814;2023-07-31T09:17:36;18.90;91.10
59505;DHT22;45321;53.200;5.814;2023-07-31T09:20:21;18.90;91.10
59505;DHT22;45321;53.200;5.814;2023-07-31T09:22:48;18.90;90.90
59505;DHT22;45321;53.200;5.814;2023-07-31T09:25:25;19.00;91.40
59505;DHT22;45321;53.200;5.814;2023-07-31T09:27:58;18.90;91.40
59505;DHT22;45321;53.200;5.814;2023-07-31T09:30:24;18.90;91.10
59505;DHT22;45321;53.200;5.814;2023-07-31T09:32:51;18.90;91.20
59505;DHT22;45321;53.200;5.814;2023-07-31T09:35:21;18.90;91.40
59505;DHT22;45321;53.200;5.814;2023-07-31T09:37:57;18.80;91.40
59505;DHT22;45321;53.200;5.814;2023-07-31T09:40:27;18.90;91.70
59505;DHT22;45321;53.200;5.814;2023-07-31T09:42:55;18.80;91.50
59505;DHT22;45321;53.200;5.814;2023-07-31T09:45:21;18.90;91.50
59505;DHT22;45321;53.200;5.814;2023-07-31T09:47:48;18.90;91.10
59505;DHT22;45321;53.200;5.814;2023-07-31T09:50:14;19.00;91.20
59505;DHT22;45321;53.200;5.814;2023-07-31T09:52:41;19.00;91.20
59505;DHT22;45321;53.200;5.814;2023-07-31T09:55:08;19.10;91.50
59505;DHT22;45321;53.200;5.814;2023-07-31T09:57:34;19.10;91.30
59505;DHT22;45321;53.200;5.814;2023-07-31T10:00:02;19.10;91.10
59505;DHT22;45321;53.200;5.814;2023-07-31T10:02:28;19.20;91.00
59505;DHT22;45321;53.200;5.814;2023-07-31T10:04:57;19.20;91.10
59505;DHT22;45321;53.200;5.814;2023-07-31T10:07:25;19.20;91.30
59505;DHT22;45321;53.200;5.814;2023-07-31T10:09:53;19.20;91.00
59505;DHT22;45321;53.200;5.814;2023-07-31T10:12:22;19.30;91.10
59505;DHT22;45321;53.200;5.814;2023-07-31T10:14:48;19.30;91.10
59505;DHT22;45321;53.200;5.814;2023-07-31T10:17:14;19.40;91.20
59505;DHT22;45321;53.200;5.814;2023-07-31T10:19:41;19.50;91.20
59505;DHT22;45321;53.200;5.814;2023-07-31T10:22:08;19.60;91.10
59505;DHT22;45321;53.200;5.814;2023-07-31T10:24:34;19.60;90.90
59505;DHT22;45321;53.200;5.814;2023-07-31T10:27:01;19.60;91.00
59505;DHT22;45321;53.200;5.814;2023-07-31T10:29:29;19.50;90.90
59505;DHT22;45321;53.200;5.814;2023-07-31T10:31:57;19.50;90.90
59505;DHT22;45321;53.200;5.814;2023-07-31T10:34:24;19.40;91.00
59505;DHT22;45321;53.200;5.814;2023-07-31T10:36:49;19.40;90.90
59505;DHT22;45321;53.200;5.814;2023-07-31T10:39:44;19.40;90.90
59505;DHT22;45321;53.200;5.814;2023-07-31T10:42:27;19.30;90.80
59505;DHT22;45321;53.200;5.814;2023-07-31T10:45:00;19.30;90.70
59505;DHT22;45321;53.200;5.814;2023-07-31T10:47:26;19.40;91.10
59505;DHT22;45321;53.200;5.814;2023-07-31T10:49:52;19.40;91.00
59505;DHT22;45321;53.200;5.814;2023-07-31T10:52:21;19.50;91.00
59505;DHT22;45321;53.200;5.814;2023-07-31T10:55:14;19.50;91.00
59505;DHT22;45321;53.200;5.814;2023-07-31T10:57:44;19.60;90.90
59505;DHT22;45321;53.200;5.814;2023-07-31T11:00:28;19.60;90.50
59505;DHT22;45321;53.200;5.814;2023-07-31T11:03:27;19.60;90.40
59505;DHT22;45321;53.200;5.814;2023-07-31T11:06:00;19.50;90.50
59505;DHT22;45321;53.200;5.814;2023-07-31T11:08:29;19.60;90.40
59505;DHT22;45321;53.200;5.814;2023-07-31T11:11:05;19.60;90.40
59505;DHT22;45321;53.200;5.814;2023-07-31T11:13:47;19.50;90.30
59505;DHT22;45321;53.200;5.814;2023-07-31T11:16:19;19.50;90.20
59505;DHT22;45321;53.200;5.814;2023-07-31T11:18:46;19.50;90.30
59505;DHT22;45321;53.200;5.814;2023-07-31T11:21:24;19.50;90.60
59505;DHT22;45321;53.200;5.814;2023-07-31T11:23:52;19.50;90.60
59505;DHT22;45321;53.200;5.814;2023-07-31T11:26:19;19.50;90.40
59505;DHT22;45321;53.200;5.814;2023-07-31T11:28:48;19.50;90.20
59505;DHT22;45321;53.200;5.814;2023-07-31T11:31:15;19.50;90.40
59505;DHT22;45321;53.200;5.814;2023-07-31T11:33:41;19.50;90.30
59505;DHT22;45321;53.200;5.814;2023-07-31T11:36:10;19.50;90.00
59505;DHT22;45321;53.200;5.814;2023-07-31T11:38:39;19.50;90.30
59505;DHT22;45321;53.200;5.814;2023-07-31T11:41:05;19.60;90.50
59505;DHT22;45321;53.200;5.814;2023-07-31T11:43:31;19.60;91.00
59505;DHT22;45321;53.200;5.814;2023-07-31T11:46:01;19.70;90.70
59505;DHT22;45321;53.200;5.814;2023-07-31T11:48:33;19.70;90.80
59505;DHT22;45321;53.200;5.814;2023-07-31T11:51:05;19.70;91.00
59505;DHT22;45321;53.200;5.814;2023-07-31T11:56:03;19.80;90.60
59505;DHT22;45321;53.200;5.814;2023-07-31T11:58:33;19.80;90.50
59505;DHT22;45321;53.200;5.814;2023-07-31T12:00:59;19.80;90.60
59505;DHT22;45321;53.200;5.814;2023-07-31T12:03:26;19.80;90.00
59505;DHT22;45321;53.200;5.814;2023-07-31T12:05:53;19.80;90.00
59505;DHT22;45321;53.200;5.814;2023-07-31T12:08:21;19.80;89.80
59505;DHT22;45321;53.200;5.814;2023-07-31T12:10:47;19.80;89.70
59505;DHT22;45321;53.200;5.814;2023-07-31T12:13:23;19.80;89.80
59505;DHT22;45321;53.200;5.814;2023-07-31T12:15:53;19.80;89.90
59505;DHT22;45321;53.200;5.814;2023-07-31T12:18:19;19.80;89.60
59505;DHT22;45321;53.200;5.814;2023-07-31T12:20:53;19.80;89.50
59505;DHT22;45321;53.200;5.814;2023-07-31T12:23:22;19.80;89.30
59505;DHT22;45321;53.200;5.814;2023-07-31T12:26:14;19.70;89.40
59505;DHT22;45321;53.200;5.814;2023-07-31T12:28:48;19.80;89.20
59505;DHT22;45321;53.200;5.814;2023-07-31T12:31:15;19.70;89.00
59505;DHT22;45321;53.200;5.814;2023-07-31T12:33:43;19.70;89.00
59505;DHT22;45321;53.200;5.814;2023-07-31T12:36:14;19.70;89.20
59505;DHT22;45321;53.200;5.814;2023-07-31T12:38:41;19.70;89.50
59505;DHT22;45321;53.200;5.814;2023-07-31T12:41:07;19.70;89.30
59505;DHT22;45321;53.200;5.814;2023-07-31T12:43:37;19.70;89.20
59505;DHT22;45321;53.200;5.814;2023-07-31T12:46:03;19.70;88.90
59505;DHT22;45321;53.200;5.814;2023-07-31T12:48:30;19.70;89.00
59505;DHT22;45321;53.200;5.814;2023-07-31T12:50:56;19.70;89.10
59505;DHT22;45321;53.200;5.814;2023-07-31T12:53:22;19.70;89.60
59505;DHT22;45321;53.200;5.814;2023-07-31T12:55:48;19.70;89.40
59505;DHT22;45321;53.200;5.814;2023-07-31T12:58:13;19.70;89.00
59505;DHT22;45321;53.200;5.814;2023-07-31T13:00:39;19.70;88.90
59505;DHT22;45321;53.200;5.814;2023-07-31T13:03:05;19.70;89.10
59505;DHT22;45321;53.200;5.814;2023-07-31T13:05:31;19.70;88.90
59505;DHT22;45321;53.200;5.814;2023-07-31T13:07:57;19.80;88.90
59505;DHT22;45321;53.200;5.814;2023-07-31T13:10:23;19.80;88.70
59505;DHT22;45321;53.200;5.814;2023-07-31T13:12:50;19.80;88.50
59505;DHT22;45321;53.200;5.814;2023-07-31T13:15:15;19.80;88.60
59505;DHT22;45321;53.200;5.814;2023-07-31T13:17:42;19.90;88.10
59505;DHT22;45321;53.200;5.814;2023-07-31T13:20:08;19.90;88.10
59505;DHT22;45321;53.200;5.814;2023-07-31T13:22:33;19.80;88.00
59505;DHT22;45321;53.200;5.814;2023-07-31T13:24:59;20.00;88.00
59505;DHT22;45321;53.200;5.814;2023-07-31T13:27:25;20.00;87.80
59505;DHT22;45321;53.200;5.814;2023-07-31T13:29:52;20.00;88.00
59505;DHT22;45321;53.200;5.814;2023-07-31T13:32:18;20.10;87.70
59505;DHT22;45321;53.200;5.814;2023-07-31T13:34:45;20.00;87.50
59505;DHT22;45321;53.200;5.814;2023-07-31T13:37:11;20.10;87.50
59505;DHT22;45321;53.200;5.814;2023-07-31T13:39:37;20.10;87.20
59505;DHT22;45321;53.200;5.814;2023-07-31T13:42:03;20.20;87.20
59505;DHT22;45321;53.200;5.814;2023-07-31T13:44:32;20.20;86.70
59505;DHT22;45321;53.200;5.814;2023-07-31T13:46:57;20.20;86.30
59505;DHT22;45321;53.200;5.814;2023-07-31T13:49:23;20.20;85.80
59505;DHT22;45321;53.200;5.814;2023-07-31T13:51:49;20.20;86.20
59505;DHT22;45321;53.200;5.814;2023-07-31T13:54:15;20.20;86.60
59505;DHT22;45321;53.200;5.814;2023-07-31T13:56:42;20.20;86.60
59505;DHT22;45321;53.200;5.814;2023-07-31T13:59:08;20.20;86.80
59505;DHT22;45321;53.200;5.814;2023-07-31T14:01:34;20.10;87.00
59505;DHT22;45321;53.200;5.814;2023-07-31T14:03:59;20.10;86.80
59505;DHT22;45321;53.200;5.814;2023-07-31T14:06:25;20.10;86.80
59505;DHT22;45321;53.200;5.814;2023-07-31T14:08:51;20.00;86.60
59505;DHT22;45321;53.200;5.814;2023-07-31T14:11:17;20.00;86.70
59505;DHT22;45321;53.200;5.814;2023-07-31T14:13:43;20.10;86.60
59505;DHT22;45321;53.200;5.814;2023-07-31T14:16:09;20.00;86.80
59505;DHT22;45321;53.200;5.814;2023-07-31T14:18:35;20.00;86.60
59505;DHT22;45321;53.200;5.814;2023-07-31T14:21:01;20.00;86.70
59505;DHT22;45321;53.200;5.814;2023-07-31T14:23:26;20.00;86.50
59505;DHT22;45321;53.200;5.814;2023-07-31T14:25:52;20.00;86.40
59505;DHT22;45321;53.200;5.814;2023-07-31T14:28:18;20.00;86.40
59505;DHT22;45321;53.200;5.814;2023-07-31T14:30:43;19.90;86.50
59505;DHT22;45321;53.200;5.814;2023-07-31T14:33:09;19.90;86.40
59505;DHT22;45321;53.200;5.814;2023-07-31T14:35:35;19.90;86.50
59505;DHT22;45321;53.200;5.814;2023-07-31T14:38:01;19.90;86.50
59505;DHT22;45321;53.200;5.814;2023-07-31T14:40:27;19.90;86.60
59505;DHT22;45321;53.200;5.814;2023-07-31T14:42:53;19.90;86.70
59505;DHT22;45321;53.200;5.814;2023-07-31T14:45:18;19.90;86.90
59505;DHT22;45321;53.200;5.814;2023-07-31T14:47:44;19.90;86.60
59505;DHT22;45321;53.200;5.814;2023-07-31T14:50:10;19.80;86.70
59505;DHT22;45321;53.200;5.814;2023-07-31T14:52:36;19.80;86.70
59505;DHT22;45321;53.200;5.814;2023-07-31T14:55:01;19.80;86.80
59505;DHT22;45321;53.200;5.814;2023-07-31T14:57:27;19.80;86.60
59505;DHT22;45321;53.200;5.814;2023-07-31T14:59:53;19.80;86.80
59505;DHT22;45321;53.200;5.814;2023-07-31T15:02:19;19.80;86.90
59505;DHT22;45321;53.200;5.814;2023-07-31T15:04:44;19.80;87.10
59505;DHT22;45321;53.200;5.814;2023-07-31T15:07:10;19.80;87.10
59505;DHT22;45321;53.200;5.814;2023-07-31T15:09:36;19.70;87.00
59505;DHT22;45321;53.200;5.814;2023-07-31T15:12:02;19.70;87.60
59505;DHT22;45321;53.200;5.814;2023-07-31T15:14:27;19.80;87.40
59505;DHT22;45321;53.200;5.814;2023-07-31T15:16:54;19.80;87.70
59505;DHT22;45321;53.200;5.814;2023-07-31T15:19:20;19.80;87.50
59505;DHT22;45321;53.200;5.814;2023-07-31T15:21:48;19.80;87.60
59505;DHT22;45321;53.200;5.814;2023-07-31T15:24:13;19.80;87.70
59505;DHT22;45321;53.200;5.814;2023-07-31T15:26:39;19.80;87.60
59505;DHT22;45321;53.200;5.814;2023-07-31T15:29:08;19.80;87.50
59505;DHT22;45321;53.200;5.814;2023-07-31T15:31:45;19.80;87.60
59505;DHT22;45321;53.200;5.814;2023-07-31T15:34:12;19.80;87.50
59505;DHT22;45321;53.200;5.814;2023-07-31T15:36:38;19.80;87.60